San Juan, PR

10:29 PM AST on December 26, 2014 (GMT -0400)
Condado, Calle Earle, At The Ocean | Change Station
CLOSE
Current Station
Personal Weather Station
Location: San Juan, SAN JUAN
Elevation: 10 ft
Nearby Weather Stations
Active Advisory: High Surf Advisory

Elev 10 ft 18.46 °N, 66.07 °W | Updated 4 seconds ago

Overcast
Overcast
76.9 °F
Feels Like 78 °F
N
4.0
Wind Variable Wind from NE
Gusts 5.0 mph

Today
High -- | Low -- °F
--% Chance of Precip.
Yesterday
High -- | Low -- °F
Precip. -- in
6:54 AM 5:55 PM
Waxing Crescent, 31% visible
Pressure 30.08 in
Visibility 10.0 miles
Clouds Scattered Clouds 2500 ft
Scattered Clouds 4200 ft
Heat Index 78 °F
Dew Point 70 °F
Humidity 79%
Rainfall 0.02 in
Snow Depth Not available.
UV 0 out of 12
Pollen Not available.
Air Quality Not available.
Flu Activity Not available.
METAR TJSJ 270156Z 11003KT 10SM -RA SCT025 SCT042 26/22 A3008 RMK AO2 RAB54 SLP184 P0000 T02560217

More Conditions Fewer Conditions

Pressure 30.08 in
Visibility 10.0 miles
Clouds Scattered Clouds 2500 ft
Scattered Clouds 4200 ft
Heat Index 78 °F
Dew Point 70 °F
Humidity 79%
Rainfall 0.02 in
Snow Depth Not available.
UV 0 out of 12
Pollen Not available.
Air Quality Not available.
Flu Activity Not available.
METAR TJSJ 270156Z 11003KT 10SM -RA SCT025 SCT042 26/22 A3008 RMK AO2 RAB54 SLP184 P0000 T02560217

More Conditions Fewer Conditions

10-Day Weather Forecast

Almanac

Astronomy

Dec. 26, 2014 Rise Set
Actual Time
Civil Twilight
Nautical Twilight
Astronomical Twilight
Moon
Length of Visible Light
Length of Day
Tomorrow will be .
, % of the Moon is Illuminated

Today's Extremes

State Highs State Lows

Community

WunderPhotos

Upload Photos

1,780,812 photos uploaded!

WunderBlogs® & News

Nearby

Air Quality

  Air Quality AQ Index Pollutant
Not available.

Snow Depth

Station Depth Elevation

Earthquake Activity

City Distance Mag. Time & Date
Minimum magnitude displayed is 2.5.

Coastal Water Temperatures

Place Temperature

Nearby Weather Stations